sensor_id;sensor_type;location;lat;lon;timestamp;P1;durP1;ratioP1;P2;durP2;ratioP2
56401;SDS011;42299;35.160;26.100;2023-07-13T00:01:57;7.15;;;5.55;;
56401;SDS011;42299;35.160;26.100;2023-07-13T00:12:24;10.23;;;5.50;;
56401;SDS011;42299;35.160;26.100;2023-07-13T00:22:49;7.90;;;5.73;;
56401;SDS011;42299;35.160;26.100;2023-07-13T00:33:13;7.13;;;5.47;;
56401;SDS011;42299;35.160;26.100;2023-07-13T00:43:38;11.07;;;5.18;;
56401;SDS011;42299;35.160;26.100;2023-07-13T00:54:05;7.18;;;5.28;;
56401;SDS011;42299;35.160;26.100;2023-07-13T01:04:34;11.00;;;5.28;;
56401;SDS011;42299;35.160;26.100;2023-07-13T01:14:58;8.20;;;5.38;;
56401;SDS011;42299;35.160;26.100;2023-07-13T01:25:23;7.30;;;5.43;;
56401;SDS011;42299;35.160;26.100;2023-07-13T01:35:46;8.25;;;5.45;;
56401;SDS011;42299;35.160;26.100;2023-07-13T01:46:12;8.98;;;5.97;;
56401;SDS011;42299;35.160;26.100;2023-07-13T01:56:35;8.65;;;5.97;;
56401;SDS011;42299;35.160;26.100;2023-07-13T02:06:59;8.68;;;6.18;;
56401;SDS011;42299;35.160;26.100;2023-07-13T02:17:01;9.68;;;5.68;;
56401;SDS011;42299;35.160;26.100;2023-07-13T02:27:26;7.30;;;5.50;;
56401;SDS011;42299;35.160;26.100;2023-07-13T02:37:48;11.50;;;6.05;;
56401;SDS011;42299;35.160;26.100;2023-07-13T02:48:13;6.75;;;5.68;;
56401;SDS011;42299;35.160;26.100;2023-07-13T02:58:36;9.55;;;6.05;;
56401;SDS011;42299;35.160;26.100;2023-07-13T03:09:00;9.43;;;6.15;;
56401;SDS011;42299;35.160;26.100;2023-07-13T03:19:26;8.75;;;6.72;;
56401;SDS011;42299;35.160;26.100;2023-07-13T03:29:51;8.90;;;6.03;;
56401;SDS011;42299;35.160;26.100;2023-07-13T03:40:14;7.32;;;4.95;;
56401;SDS011;42299;35.160;26.100;2023-07-13T03:50:40;7.22;;;5.35;;
56401;SDS011;42299;35.160;26.100;2023-07-13T04:01:04;8.00;;;5.53;;
56401;SDS011;42299;35.160;26.100;2023-07-13T04:11:30;8.38;;;5.40;;
56401;SDS011;42299;35.160;26.100;2023-07-13T04:21:54;9.90;;;4.97;;
56401;SDS011;42299;35.160;26.100;2023-07-13T04:32:21;9.00;;;4.88;;
56401;SDS011;42299;35.160;26.100;2023-07-13T04:42:44;8.23;;;4.32;;
56401;SDS011;42299;35.160;26.100;2023-07-13T04:53:09;8.50;;;4.72;;
56401;SDS011;42299;35.160;26.100;2023-07-13T05:03:32;7.43;;;4.00;;
56401;SDS011;42299;35.160;26.100;2023-07-13T05:13:56;9.60;;;4.50;;
56401;SDS011;42299;35.160;26.100;2023-07-13T05:24:19;11.68;;;4.80;;
56401;SDS011;42299;35.160;26.100;2023-07-13T05:34:43;6.50;;;4.85;;
56401;SDS011;42299;35.160;26.100;2023-07-13T05:45:06;8.52;;;4.80;;
56401;SDS011;42299;35.160;26.100;2023-07-13T05:55:31;9.73;;;5.35;;
56401;SDS011;42299;35.160;26.100;2023-07-13T06:05:54;6.80;;;4.97;;
56401;SDS011;42299;35.160;26.100;2023-07-13T06:16:18;7.40;;;4.70;;
56401;SDS011;42299;35.160;26.100;2023-07-13T06:26:41;6.97;;;5.03;;
56401;SDS011;42299;35.160;26.100;2023-07-13T06:37:03;8.02;;;5.22;;
56401;SDS011;42299;35.160;26.100;2023-07-13T06:57:50;10.32;;;5.25;;
56401;SDS011;42299;35.160;26.100;2023-07-13T07:08:12;7.47;;;4.90;;
56401;SDS011;42299;35.160;26.100;2023-07-13T07:18:36;7.15;;;4.65;;
56401;SDS011;42299;35.160;26.100;2023-07-13T07:28:40;6.03;;;4.07;;
56401;SDS011;42299;35.160;26.100;2023-07-13T07:39:04;7.35;;;3.92;;
56401;SDS011;42299;35.160;26.100;2023-07-13T07:49:27;10.15;;;4.72;;
56401;SDS011;42299;35.160;26.100;2023-07-13T07:59:51;4.95;;;3.92;;
56401;SDS011;42299;35.160;26.100;2023-07-13T08:10:05;5.05;;;3.72;;
56401;SDS011;42299;35.160;26.100;2023-07-13T08:20:29;6.17;;;3.90;;
56401;SDS011;42299;35.160;26.100;2023-07-13T08:30:43;5.97;;;3.75;;
56401;SDS011;42299;35.160;26.100;2023-07-13T08:41:12;5.32;;;3.38;;
56401;SDS011;42299;35.160;26.100;2023-07-13T08:51:38;7.85;;;3.90;;
56401;SDS011;42299;35.160;26.100;2023-07-13T09:13:06;4.65;;;3.30;;
56401;SDS011;42299;35.160;26.100;2023-07-13T09:23:40;8.30;;;3.60;;
56401;SDS011;42299;35.160;26.100;2023-07-13T09:34:04;5.55;;;3.92;;
56401;SDS011;42299;35.160;26.100;2023-07-13T09:44:33;7.68;;;3.80;;
56401;SDS011;42299;35.160;26.100;2023-07-13T09:54:57;6.95;;;4.10;;
56401;SDS011;42299;35.160;26.100;2023-07-13T10:05:22;7.97;;;4.20;;
56401;SDS011;42299;35.160;26.100;2023-07-13T10:15:46;6.57;;;4.35;;
56401;SDS011;42299;35.160;26.100;2023-07-13T10:26:14;6.70;;;4.00;;
56401;SDS011;42299;35.160;26.100;2023-07-13T10:47:59;6.28;;;3.90;;
56401;SDS011;42299;35.160;26.100;2023-07-13T10:58:23;7.10;;;3.85;;
56401;SDS011;42299;35.160;26.100;2023-07-13T11:08:56;10.55;;;4.40;;
56401;SDS011;42299;35.160;26.100;2023-07-13T11:19:25;7.18;;;3.90;;
56401;SDS011;42299;35.160;26.100;2023-07-13T11:29:54;6.07;;;4.40;;
56401;SDS011;42299;35.160;26.100;2023-07-13T11:40:31;8.38;;;5.15;;
56401;SDS011;42299;35.160;26.100;2023-07-13T11:50:57;9.57;;;5.53;;
56401;SDS011;42299;35.160;26.100;2023-07-13T12:01:24;11.05;;;6.22;;
56401;SDS011;42299;35.160;26.100;2023-07-13T12:11:51;7.63;;;5.90;;
56401;SDS011;42299;35.160;26.100;2023-07-13T12:22:14;8.50;;;6.20;;
56401;SDS011;42299;35.160;26.100;2023-07-13T12:32:41;7.32;;;5.40;;
56401;SDS011;42299;35.160;26.100;2023-07-13T12:43:04;8.27;;;5.40;;
56401;SDS011;42299;35.160;26.100;2023-07-13T12:53:29;10.47;;;6.60;;
56401;SDS011;42299;35.160;26.100;2023-07-13T13:03:53;8.15;;;5.55;;
56401;SDS011;42299;35.160;26.100;2023-07-13T13:14:17;7.70;;;5.50;;
56401;SDS011;42299;35.160;26.100;2023-07-13T13:24:20;9.43;;;6.63;;
56401;SDS011;42299;35.160;26.100;2023-07-13T13:34:46;9.35;;;6.75;;
56401;SDS011;42299;35.160;26.100;2023-07-13T13:45:09;10.43;;;6.95;;
56401;SDS011;42299;35.160;26.100;2023-07-13T13:55:34;11.07;;;6.93;;
56401;SDS011;42299;35.160;26.100;2023-07-13T14:05:57;9.30;;;6.50;;
56401;SDS011;42299;35.160;26.100;2023-07-13T14:16:21;11.48;;;6.85;;
56401;SDS011;42299;35.160;26.100;2023-07-13T14:26:48;10.60;;;7.05;;
56401;SDS011;42299;35.160;26.100;2023-07-13T14:37:13;8.90;;;6.80;;
56401;SDS011;42299;35.160;26.100;2023-07-13T14:47:37;10.05;;;7.70;;
56401;SDS011;42299;35.160;26.100;2023-07-13T14:58:01;11.35;;;6.60;;
56401;SDS011;42299;35.160;26.100;2023-07-13T15:08:24;12.50;;;7.55;;
56401;SDS011;42299;35.160;26.100;2023-07-13T15:18:48;11.68;;;7.45;;
56401;SDS011;42299;35.160;26.100;2023-07-13T15:29:11;14.57;;;8.10;;
56401;SDS011;42299;35.160;26.100;2023-07-13T15:39:36;14.13;;;7.78;;
56401;SDS011;42299;35.160;26.100;2023-07-13T15:49:59;15.38;;;8.00;;
56401;SDS011;42299;35.160;26.100;2023-07-13T16:00:24;16.05;;;8.20;;
56401;SDS011;42299;35.160;26.100;2023-07-13T16:10:48;10.82;;;7.95;;
56401;SDS011;42299;35.160;26.100;2023-07-13T16:21:13;12.27;;;8.85;;
56401;SDS011;42299;35.160;26.100;2023-07-13T16:31:37;10.93;;;8.63;;
56401;SDS011;42299;35.160;26.100;2023-07-13T16:42:02;14.10;;;8.65;;
56401;SDS011;42299;35.160;26.100;2023-07-13T16:52:25;15.10;;;9.25;;
56401;SDS011;42299;35.160;26.100;2023-07-13T17:02:50;12.38;;;8.90;;
56401;SDS011;42299;35.160;26.100;2023-07-13T17:13:13;12.57;;;9.35;;
56401;SDS011;42299;35.160;26.100;2023-07-13T17:23:38;15.55;;;10.15;;
56401;SDS011;42299;35.160;26.100;2023-07-13T17:34:11;17.45;;;9.18;;
56401;SDS011;42299;35.160;26.100;2023-07-13T17:44:29;12.60;;;8.75;;
56401;SDS011;42299;35.160;26.100;2023-07-13T17:54:51;12.80;;;7.95;;
56401;SDS011;42299;35.160;26.100;2023-07-13T18:05:15;16.33;;;8.50;;
56401;SDS011;42299;35.160;26.100;2023-07-13T18:15:39;13.05;;;8.88;;
56401;SDS011;42299;35.160;26.100;2023-07-13T18:26:04;14.10;;;8.93;;
56401;SDS011;42299;35.160;26.100;2023-07-13T18:36:12;13.77;;;9.63;;
56401;SDS011;42299;35.160;26.100;2023-07-13T18:46:38;13.35;;;9.40;;
56401;SDS011;42299;35.160;26.100;2023-07-13T18:57:02;12.65;;;8.77;;
56401;SDS011;42299;35.160;26.100;2023-07-13T19:07:26;14.35;;;9.63;;
56401;SDS011;42299;35.160;26.100;2023-07-13T19:17:50;13.00;;;9.20;;
56401;SDS011;42299;35.160;26.100;2023-07-13T19:28:24;17.67;;;13.00;;
56401;SDS011;42299;35.160;26.100;2023-07-13T19:38:49;13.65;;;10.90;;
56401;SDS011;42299;35.160;26.100;2023-07-13T19:49:14;14.75;;;10.25;;
56401;SDS011;42299;35.160;26.100;2023-07-13T19:59:31;14.70;;;11.37;;
56401;SDS011;42299;35.160;26.100;2023-07-13T20:09:56;15.93;;;10.73;;
56401;SDS011;42299;35.160;26.100;2023-07-13T20:20:20;16.75;;;11.18;;
56401;SDS011;42299;35.160;26.100;2023-07-13T20:30:28;15.87;;;11.23;;
56401;SDS011;42299;35.160;26.100;2023-07-13T20:40:53;14.20;;;10.95;;
56401;SDS011;42299;35.160;26.100;2023-07-13T20:51:17;15.65;;;11.82;;
56401;SDS011;42299;35.160;26.100;2023-07-13T21:01:42;16.70;;;11.68;;
56401;SDS011;42299;35.160;26.100;2023-07-13T21:12:07;14.00;;;11.07;;
56401;SDS011;42299;35.160;26.100;2023-07-13T21:22:31;17.70;;;11.63;;
56401;SDS011;42299;35.160;26.100;2023-07-13T21:32:55;14.57;;;11.40;;
56401;SDS011;42299;35.160;26.100;2023-07-13T21:42:59;14.35;;;10.75;;
56401;SDS011;42299;35.160;26.100;2023-07-13T21:53:24;17.02;;;11.95;;
56401;SDS011;42299;35.160;26.100;2023-07-13T22:03:49;16.42;;;11.48;;
56401;SDS011;42299;35.160;26.100;2023-07-13T22:14:17;13.30;;;11.33;;
56401;SDS011;42299;35.160;26.100;2023-07-13T22:24:40;16.48;;;12.30;;
56401;SDS011;42299;35.160;26.100;2023-07-13T22:35:04;17.33;;;12.20;;
56401;SDS011;42299;35.160;26.100;2023-07-13T22:45:08;15.95;;;11.93;;
56401;SDS011;42299;35.160;26.100;2023-07-13T22:55:33;14.73;;;12.52;;
56401;SDS011;42299;35.160;26.100;2023-07-13T23:05:56;18.23;;;11.30;;
56401;SDS011;42299;35.160;26.100;2023-07-13T23:16:23;16.25;;;12.07;;
56401;SDS011;42299;35.160;26.100;2023-07-13T23:26:49;15.93;;;12.37;;
56401;SDS011;42299;35.160;26.100;2023-07-13T23:37:16;15.00;;;11.63;;
56401;SDS011;42299;35.160;26.100;2023-07-13T23:47:39;17.25;;;12.32;;
56401;SDS011;42299;35.160;26.100;2023-07-13T23:58:04;16.05;;;12.70;;
